Time;durP1;ratioP1;P1;durP2;ratioP2;P2;SDS_P1;SDS_P2;PMS_P1;PMS_P2;Temp;Humidity;BMP_temperature;BMP_pressure;BME280_temperature;BME280_humidity;BME280_pressure;Samples;Min_cycle;Max_cycle;Signal;HPM_P1;HPM_P2
2022/09/30 00:00:41;;;;;;;9.30;3.22;;;16.10;99.90;;;;;;5028897;28;20245;-73
2022/09/30 00:03:11;;;;;;;12.07;3.35;;;16.10;99.90;;;;;;5033573;28;20316;-72
2022/09/30 00:05:44;;;;;;;13.88;1.95;;;16.30;99.90;;;;;;5031626;28;20194;-73
2022/09/30 00:08:15;;;;;;;15.13;1.83;;;16.40;99.90;;;;;;5030819;28;20685;-75
2022/09/30 00:10:46;;;;;;;14.07;2.00;;;16.60;99.90;;;;;;5027581;28;20194;-73
2022/09/30 00:13:16;;;;;;;11.90;2.13;;;16.80;99.90;;;;;;5026992;28;20206;-75
2022/09/30 00:15:50;;;;;;;15.55;1.85;;;16.90;99.90;;;;;;5038017;28;20573;-75
2022/09/30 00:18:21;;;;;;;10.73;1.67;;;17.00;99.90;;;;;;5032052;28;20209;-74
2022/09/30 00:20:54;;;;;;;7.25;1.35;;;17.10;99.90;;;;;;5029293;28;20241;-74
2022/09/30 00:23:25;;;;;;;9.25;1.63;;;17.10;99.90;;;;;;5028662;28;20213;-74
2022/09/30 00:26:01;;;;;;;8.27;1.50;;;17.20;99.90;;;;;;5032657;28;20194;-72
2022/09/30 00:28:32;;;;;;;6.72;1.52;;;17.30;99.90;;;;;;5032386;28;20282;-71
2022/09/30 00:31:06;;;;;;;8.40;1.30;;;17.50;99.90;;;;;;5036113;28;20204;-71
2022/09/30 00:33:37;;;;;;;11.40;1.60;;;17.50;99.90;;;;;;5031325;28;20677;-72
2022/09/30 00:36:10;;;;;;;9.75;1.60;;;17.60;99.90;;;;;;5026695;28;20295;-73
2022/09/30 00:38:40;;;;;;;9.02;2.10;;;17.50;99.90;;;;;;5008377;28;20688;-74
2022/09/30 00:41:11;;;;;;;13.93;6.13;;;17.50;99.90;;;;;;5017390;28;20189;-73
2022/09/30 00:43:45;;;;;;;10.20;2.05;;;17.40;99.90;;;;;;5013350;28;20268;-74
2022/09/30 00:46:22;;;;;;;7.97;1.63;;;17.10;99.90;;;;;;5017887;28;20540;-72
2022/09/30 00:48:55;;;;;;;8.80;1.83;;;16.90;99.90;;;;;;5012225;28;20194;-74
2022/09/30 00:51:33;;;;;;;13.18;2.20;;;16.90;99.90;;;;;;5011200;28;20241;-73
2022/09/30 00:54:05;;;;;;;10.80;1.80;;;16.90;99.90;;;;;;5007068;28;20194;-72
2022/09/30 00:56:40;;;;;;;9.88;1.83;;;16.90;99.90;;;;;;5012262;28;20214;-74
2022/09/30 00:59:15;;;;;;;11.18;1.70;;;17.00;99.90;;;;;;5011317;28;20201;-73
2022/09/30 01:01:46;;;;;;;9.07;1.80;;;17.20;99.90;;;;;;5011914;28;20191;-75
2022/09/30 01:04:19;;;;;;;11.38;2.00;;;17.30;99.90;;;;;;5001618;28;20542;-73
2022/09/30 01:06:52;;;;;;;11.50;1.90;;;17.20;99.90;;;;;;5009181;28;20222;-73
2022/09/30 01:09:23;;;;;;;12.10;2.03;;;17.00;99.90;;;;;;5006619;28;20274;-73
2022/09/30 01:11:55;;;;;;;14.43;2.50;;;16.90;99.90;;;;;;5009744;28;20187;-72
2022/09/30 01:14:28;;;;;;;19.95;2.50;;;17.00;99.90;;;;;;5008812;28;20290;-73
2022/09/30 01:17:07;;;;;;;11.13;2.15;;;16.90;99.90;;;;;;5011202;28;20222;-73
2022/09/30 01:20:30;;;;;;;18.80;2.20;;;17.00;99.90;;;;;;5012964;28;20646;-73
2022/09/30 01:23:21;;;;;;;9.85;1.92;;;17.10;99.90;;;;;;4997642;28;20199;-73
2022/09/30 01:26:12;;;;;;;10.35;2.10;;;17.30;99.90;;;;;;5006768;28;20634;-74
2022/09/30 01:29:37;;;;;;;11.50;2.10;;;17.50;99.90;;;;;;5010721;28;20250;-74
2022/09/30 01:32:20;;;;;;;13.00;2.30;;;17.80;99.90;;;;;;5019924;28;20245;-73
2022/09/30 01:35:03;;;;;;;15.23;1.92;;;18.20;99.90;;;;;;5010580;28;21704;-73
2022/09/30 01:37:44;;;;;;;12.98;1.85;;;18.30;99.90;;;;;;5025168;28;20772;-72
2022/09/30 01:40:24;;;;;;;14.32;2.00;;;18.50;99.90;;;;;;5033430;28;20277;-71
2022/09/30 01:43:03;;;;;;;13.10;1.67;;;18.70;99.90;;;;;;5036951;28;20217;-71
2022/09/30 01:45:41;;;;;;;12.43;1.80;;;18.70;99.90;;;;;;5037034;28;20244;-72
2022/09/30 01:48:19;;;;;;;9.43;1.48;;;18.60;99.90;;;;;;5026065;28;20213;-71
2022/09/30 01:50:56;;;;;;;14.23;1.60;;;18.60;99.90;;;;;;5033249;28;20205;-73
2022/09/30 01:53:33;;;;;;;9.48;1.40;;;18.70;99.90;;;;;;5030764;28;20574;-72
2022/09/30 01:56:09;;;;;;;7.35;1.25;;;18.90;99.90;;;;;;5030530;28;20218;-70
2022/09/30 01:58:44;;;;;;;12.07;1.73;;;18.90;99.90;;;;;;5036008;28;20985;-71
2022/09/30 02:01:24;;;;;;;9.82;1.92;;;18.90;99.90;;;;;;5031899;28;20193;-76
2022/09/30 02:03:59;;;;;;;8.30;1.98;;;18.80;99.90;;;;;;5031370;28;20202;-73
2022/09/30 02:06:37;;;;;;;9.52;1.83;;;18.70;99.90;;;;;;5044134;28;20206;-73
2022/09/30 02:09:13;;;;;;;9.57;1.90;;;18.60;99.90;;;;;;5029962;28;20216;-74
2022/09/30 02:11:44;;;;;;;13.80;1.95;;;18.50;99.90;;;;;;5035862;28;20251;-75
2022/09/30 02:14:19;;;;;;;10.65;2.00;;;18.30;99.90;;;;;;5035296;28;20566;-75
2022/09/30 02:16:55;;;;;;;14.73;4.85;;;18.10;99.90;;;;;;5036425;28;20227;-74
2022/09/30 02:19:35;;;;;;;13.70;2.40;;;18.00;99.90;;;;;;5034955;28;20190;-76
2022/09/30 02:22:11;;;;;;;18.08;2.30;;;17.90;99.90;;;;;;5035320;28;20194;-74
2022/09/30 02:24:44;;;;;;;11.27;2.03;;;17.80;99.90;;;;;;5034690;28;20190;-74
2022/09/30 02:27:21;;;;;;;13.07;1.98;;;17.40;99.90;;;;;;5034837;28;20297;-74
2022/09/30 02:29:56;;;;;;;11.88;1.60;;;17.20;99.90;;;;;;5038783;28;20203;-74
2022/09/30 02:32:29;;;;;;;15.43;2.50;;;17.10;99.90;;;;;;5030961;28;20256;-75
2022/09/30 02:35:07;;;;;;;15.52;2.30;;;17.10;99.90;;;;;;5032162;28;20222;-75
2022/09/30 02:37:42;;;;;;;14.30;2.05;;;17.30;99.90;;;;;;5039995;28;20738;-74
2022/09/30 02:40:20;;;;;;;12.77;1.75;;;17.50;99.90;;;;;;5030823;28;20193;-75
2022/09/30 02:42:51;;;;;;;12.98;2.08;;;17.50;99.90;;;;;;5033514;28;20190;-75
2022/09/30 02:45:24;;;;;;;12.88;1.90;;;17.60;99.90;;;;;;5031256;28;20196;-76
2022/09/30 02:48:07;;;;;;;14.90;1.70;;;17.60;99.90;;;;;;5031070;28;20190;-76
2022/09/30 02:50:45;;;;;;;14.43;2.97;;;17.30;99.90;;;;;;5035403;28;20653;-75
2022/09/30 02:53:24;;;;;;;11.85;1.70;;;17.10;99.90;;;;;;5031667;28;20198;-74
2022/09/30 02:56:10;;;;;;;8.25;1.60;;;17.00;99.90;;;;;;5037036;28;20216;-74
2022/09/30 02:58:42;;;;;;;6.38;1.38;;;16.80;99.90;;;;;;5031813;28;20289;-74
2022/09/30 03:01:15;;;;;;;9.70;2.08;;;16.60;99.90;;;;;;5028121;28;20225;-73
2022/09/30 03:03:47;;;;;;;9.48;1.77;;;16.50;99.90;;;;;;5025546;28;20201;-75
2022/09/30 03:06:20;;;;;;;6.85;1.65;;;16.60;99.90;;;;;;5031689;28;20198;-75
2022/09/30 03:08:52;;;;;;;6.18;1.23;;;16.70;99.90;;;;;;5032017;28;20662;-76
2022/09/30 03:11:26;;;;;;;11.98;1.80;;;16.80;99.90;;;;;;5034569;28;20201;-76
2022/09/30 03:14:23;;;;;;;5.20;1.38;;;17.00;99.90;;;;;;5031498;28;20194;-70
2022/09/30 03:17:16;;;;;;;8.77;1.80;;;17.20;99.90;;;;;;5034181;28;20727;-75
2022/09/30 03:20:10;;;;;;;12.63;1.58;;;17.30;99.90;;;;;;5034452;28;20209;-71
2022/09/30 03:23:04;;;;;;;7.75;1.50;;;17.20;99.90;;;;;;5033806;28;20202;-69
2022/09/30 03:25:45;;;;;;;8.55;2.00;;;16.90;99.90;;;;;;5031767;28;20210;-72
2022/09/30 03:28:24;;;;;;;10.05;1.60;;;16.90;99.90;;;;;;5033844;28;20198;-74
2022/09/30 03:31:04;;;;;;;12.02;1.98;;;16.90;99.90;;;;;;5032913;28;20190;-70
2022/09/30 03:33:45;;;;;;;8.48;1.65;;;16.90;99.90;;;;;;5034235;28;20577;-73
2022/09/30 03:36:23;;;;;;;10.15;1.65;;;17.00;99.90;;;;;;5029341;28;20867;-69
2022/09/30 03:39:03;;;;;;;10.27;1.60;;;16.90;99.90;;;;;;5029285;28;20194;-70
2022/09/30 03:41:39;;;;;;;13.13;1.83;;;17.10;99.90;;;;;;5042086;28;20255;-70
2022/09/30 03:44:16;;;;;;;8.85;1.52;;;17.30;99.90;;;;;;5035611;28;20221;-74
2022/09/30 03:46:50;;;;;;;9.70;1.50;;;17.70;99.90;;;;;;5031380;28;20451;-74
2022/09/30 03:49:25;;;;;;;8.98;1.52;;;17.90;99.90;;;;;;5040973;28;20197;-73
2022/09/30 03:51:58;;;;;;;6.97;1.25;;;17.90;99.90;;;;;;5030053;28;20192;-76
2022/09/30 03:54:30;;;;;;;5.47;1.23;;;17.90;99.90;;;;;;5029550;28;20205;-72
2022/09/30 03:57:04;;;;;;;7.25;1.10;;;17.70;99.90;;;;;;5031013;28;20707;-72
2022/09/30 03:59:34;;;;;;;8.18;1.35;;;17.60;99.90;;;;;;5032853;28;20274;-72
2022/09/30 04:02:06;;;;;;;7.90;1.35;;;17.70;99.90;;;;;;5032410;28;20202;-74
2022/09/30 04:04:36;;;;;;;8.80;1.35;;;17.60;99.90;;;;;;5030915;28;20201;-74
2022/09/30 04:07:07;;;;;;;7.72;0.95;;;17.30;99.90;;;;;;5031172;28;20204;-73
2022/09/30 04:09:40;;;;;;;4.85;1.38;;;16.90;99.90;;;;;;5032985;28;20638;-72
2022/09/30 04:12:11;;;;;;;12.88;1.67;;;16.60;99.90;;;;;;5032969;28;20566;-73
2022/09/30 04:14:42;;;;;;;8.32;1.15;;;16.40;99.90;;;;;;5033356;28;20187;-71
2022/09/30 04:17:12;;;;;;;8.13;1.80;;;16.40;99.90;;;;;;5032719;28;20214;-72
2022/09/30 04:19:43;;;;;;;9.15;1.20;;;16.40;99.90;;;;;;5030079;28;20213;-71
2022/09/30 04:22:14;;;;;;;6.45;1.35;;;16.30;99.90;;;;;;5019557;28;20194;-73
2022/09/30 04:24:47;;;;;;;7.38;1.23;;;16.30;99.90;;;;;;5032966;28;20201;-74
2022/09/30 04:27:17;;;;;;;9.23;1.23;;;16.40;99.90;;;;;;5033740;28;20197;-70
2022/09/30 04:29:48;;;;;;;6.30;1.17;;;16.50;99.90;;;;;;5032705;28;20202;-69
2022/09/30 04:32:19;;;;;;;4.85;1.00;;;16.70;99.90;;;;;;5026735;28;20245;-69
2022/09/30 04:34:50;;;;;;;7.38;1.00;;;16.60;99.90;;;;;;5023579;28;20222;-72
2022/09/30 04:37:20;;;;;;;5.65;0.90;;;16.70;99.90;;;;;;5022656;28;20233;-69
2022/09/30 04:39:53;;;;;;;4.72;1.00;;;16.90;99.90;;;;;;5032631;28;20202;-71
2022/09/30 04:42:24;;;;;;;5.45;0.90;;;16.90;99.90;;;;;;5026767;28;20198;-72
2022/09/30 04:44:56;;;;;;;7.13;1.05;;;17.10;99.90;;;;;;5030430;28;20205;-74
2022/09/30 04:47:27;;;;;;;8.75;1.20;;;17.20;99.90;;;;;;5033508;28;20297;-73
2022/09/30 04:49:58;;;;;;;5.95;1.10;;;17.40;99.90;;;;;;5032613;28;20201;-74
2022/09/30 04:52:29;;;;;;;7.60;1.23;;;17.50;99.90;;;;;;5032070;28;20198;-71
2022/09/30 04:55:02;;;;;;;7.13;1.05;;;17.50;99.90;;;;;;5016808;28;20191;-70
2022/09/30 04:57:32;;;;;;;6.93;1.10;;;17.50;99.90;;;;;;5017018;28;20236;-71
2022/09/30 05:00:03;;;;;;;10.75;1.05;;;17.70;99.90;;;;;;5032376;28;20566;-70
2022/09/30 05:02:34;;;;;;;8.10;1.65;;;17.70;99.90;;;;;;5033225;28;20725;-71
2022/09/30 05:05:05;;;;;;;10.55;1.42;;;17.80;99.90;;;;;;5031679;28;20202;-72
2022/09/30 05:07:36;;;;;;;8.27;1.20;;;17.80;99.90;;;;;;5033174;28;20190;-71
2022/09/30 05:10:10;;;;;;;9.00;1.58;;;17.80;99.90;;;;;;5028288;28;20190;-71
2022/09/30 05:12:40;;;;;;;7.85;1.15;;;17.60;99.90;;;;;;5031806;28;20217;-73
2022/09/30 05:15:12;;;;;;;4.07;0.70;;;17.50;99.90;;;;;;5031858;28;20205;-73
2022/09/30 05:17:42;;;;;;;4.95;0.75;;;17.50;99.90;;;;;;5031463;28;20224;-72
2022/09/30 05:20:13;;;;;;;5.15;0.80;;;17.60;99.90;;;;;;5033154;28;20186;-73
2022/09/30 05:22:44;;;;;;;4.68;0.80;;;17.60;99.90;;;;;;5031992;28;20208;-74
2022/09/30 05:25:17;;;;;;;2.72;0.73;;;17.80;99.90;;;;;;5031304;28;20193;-72
2022/09/30 05:27:51;;;;;;;10.55;1.08;;;17.80;99.90;;;;;;5013143;28;20201;-73
2022/09/30 05:30:22;;;;;;;4.03;0.93;;;17.90;99.90;;;;;;5013726;28;20364;-70
2022/09/30 05:32:52;;;;;;;5.35;0.90;;;17.80;99.90;;;;;;5032896;28;20200;-72
2022/09/30 05:35:23;;;;;;;5.35;1.08;;;17.80;99.90;;;;;;5030960;28;20305;-71
2022/09/30 05:37:54;;;;;;;9.27;1.17;;;17.90;99.90;;;;;;5030202;28;20245;-72
2022/09/30 05:40:26;;;;;;;9.32;1.30;;;17.90;99.90;;;;;;5031252;28;20209;-70
2022/09/30 05:42:59;;;;;;;7.97;1.10;;;18.00;99.90;;;;;;5032308;28;20206;-69
2022/09/30 05:45:30;;;;;;;7.43;0.90;;;18.00;99.90;;;;;;5032802;28;20193;-72
2022/09/30 05:48:01;;;;;;;5.88;1.20;;;17.90;99.90;;;;;;5032142;28;20198;-73
2022/09/30 05:50:32;;;;;;;4.90;1.52;;;17.60;99.90;;;;;;5032795;28;20673;-73
2022/09/30 05:53:04;;;;;;;8.13;1.20;;;17.20;99.90;;;;;;5026719;28;20293;-72
2022/09/30 05:55:36;;;;;;;11.23;1.40;;;16.90;99.90;;;;;;5016333;28;20664;-73
2022/09/30 05:58:07;;;;;;;8.48;1.35;;;16.70;99.90;;;;;;5032518;28;20582;-72
2022/09/30 06:00:40;;;;;;;8.40;1.55;;;16.60;99.90;;;;;;5031001;28;20249;-73
2022/09/30 06:03:10;;;;;;;7.57;1.38;;;16.50;99.90;;;;;;5032679;28;20642;-71
2022/09/30 06:05:41;;;;;;;8.05;1.10;;;16.50;99.90;;;;;;5031817;28;20224;-72
2022/09/30 06:08:13;;;;;;;7.82;1.30;;;16.30;99.90;;;;;;5030816;28;20325;-70
2022/09/30 06:10:46;;;;;;;6.55;1.20;;;16.10;99.90;;;;;;5031258;28;20198;-74
2022/09/30 06:13:17;;;;;;;7.95;1.30;;;16.10;99.90;;;;;;5052690;28;20190;-71
2022/09/30 06:15:56;;;;;;;7.07;1.10;;;16.00;99.90;;;;;;5040607;28;20194;-73
2022/09/30 06:18:26;;;;;;;8.20;1.20;;;15.90;99.90;;;;;;5034229;28;20222;-72
2022/09/30 06:20:59;;;;;;;12.15;1.58;;;15.90;99.90;;;;;;5029624;28;21896;-73
2022/09/30 06:23:30;;;;;;;7.03;1.48;;;15.90;99.90;;;;;;5026103;28;20543;-73
2022/09/30 06:26:03;;;;;;;8.50;1.10;;;15.80;99.90;;;;;;5034760;28;20205;-72
2022/09/30 06:28:34;;;;;;;8.73;1.33;;;15.80;99.90;;;;;;5035251;28;20206;-74
2022/09/30 06:31:05;;;;;;;5.10;0.93;;;15.70;99.90;;;;;;5035714;28;20190;-72
2022/09/30 06:33:36;;;;;;;5.57;1.20;;;15.70;99.90;;;;;;5033574;28;20285;-71
2022/09/30 06:36:07;;;;;;;6.72;1.08;;;15.60;99.90;;;;;;5033231;28;20244;-70
2022/09/30 06:38:38;;;;;;;3.92;1.08;;;15.70;99.90;;;;;;5030298;28;20562;-70
2022/09/30 06:41:12;;;;;;;9.18;1.40;;;15.60;99.90;;;;;;5015849;28;20198;-69
2022/09/30 06:43:43;;;;;;;7.13;1.30;;;15.60;99.90;;;;;;5031314;28;20198;-72
2022/09/30 06:46:14;;;;;;;9.98;1.25;;;15.60;99.90;;;;;;5034913;28;20241;-72
2022/09/30 06:48:45;;;;;;;4.47;0.95;;;15.50;99.90;;;;;;5029940;28;20198;-74
2022/09/30 06:51:15;;;;;;;5.70;1.10;;;15.50;99.90;;;;;;5034638;28;20194;-74
2022/09/30 06:53:46;;;;;;;5.88;1.50;;;15.50;99.90;;;;;;5035394;28;20281;-72
2022/09/30 06:56:19;;;;;;;8.93;1.40;;;15.50;99.90;;;;;;5034815;28;20197;-73
2022/09/30 06:58:50;;;;;;;7.07;1.90;;;15.50;99.90;;;;;;5039576;28;20215;-72
2022/09/30 07:01:21;;;;;;;7.25;1.10;;;15.50;99.90;;;;;;5035419;28;20611;-72
2022/09/30 07:03:56;;;;;;;5.65;1.08;;;15.50;99.90;;;;;;5034410;28;21873;-72
2022/09/30 07:06:27;;;;;;;10.02;1.45;;;15.50;99.90;;;;;;5034244;28;20197;-72
2022/09/30 07:08:58;;;;;;;6.53;1.23;;;15.50;99.90;;;;;;5029149;28;20195;-73
2022/09/30 07:11:31;;;;;;;9.45;1.45;;;15.50;99.90;;;;;;5033829;28;20197;-71
2022/09/30 07:14:03;;;;;;;45.97;28.67;;;15.40;99.90;;;;;;5032862;28;20194;-71
2022/09/30 07:16:34;;;;;;;12.75;5.78;;;15.40;99.90;;;;;;5034554;28;20206;-72
2022/09/30 07:19:06;;;;;;;13.35;3.78;;;15.50;99.90;;;;;;5033584;28;20248;-72
2022/09/30 07:21:36;;;;;;;7.82;1.90;;;15.50;99.90;;;;;;5034295;28;20198;-73
2022/09/30 07:24:08;;;;;;;14.27;2.55;;;15.40;99.90;;;;;;5034095;28;20434;-70
2022/09/30 07:26:41;;;;;;;19.77;8.48;;;15.40;99.90;;;;;;5033531;28;20441;-74
2022/09/30 07:29:12;;;;;;;10.82;2.63;;;15.30;99.90;;;;;;5033702;28;20194;-72
2022/09/30 07:31:43;;;;;;;11.90;2.13;;;15.30;99.90;;;;;;5033514;28;20198;-71
2022/09/30 07:34:14;;;;;;;13.35;1.90;;;15.20;99.90;;;;;;5034423;28;20221;-72
2022/09/30 07:36:45;;;;;;;6.65;1.58;;;15.10;99.90;;;;;;5032530;28;20222;-71
2022/09/30 07:39:15;;;;;;;14.55;2.20;;;15.10;99.90;;;;;;5034432;28;20191;-72
2022/09/30 07:41:48;;;;;;;10.73;1.88;;;15.00;99.90;;;;;;5042684;28;20201;-71
2022/09/30 07:44:19;;;;;;;13.93;2.28;;;15.00;99.90;;;;;;5033056;28;20206;-72
2022/09/30 07:46:49;;;;;;;12.40;2.28;;;15.00;99.90;;;;;;5031866;28;20204;-72
2022/09/30 07:49:23;;;;;;;11.45;2.03;;;14.90;99.90;;;;;;5032106;28;20194;-71
2022/09/30 07:51:55;;;;;;;21.55;3.00;;;14.90;99.90;;;;;;5031491;28;20675;-72
2022/09/30 07:54:31;;;;;;;17.10;2.60;;;15.00;99.90;;;;;;5029328;28;20202;-72
2022/09/30 07:57:05;;;;;;;10.95;2.20;;;15.00;99.90;;;;;;5026562;28;20198;-72
2022/09/30 07:59:37;;;;;;;18.88;2.45;;;15.00;99.90;;;;;;5031907;28;20209;-72
2022/09/30 08:02:09;;;;;;;18.10;2.25;;;15.00;99.90;;;;;;5018244;28;20217;-73
2022/09/30 08:04:39;;;;;;;15.77;2.65;;;15.00;99.90;;;;;;5032486;28;20198;-72
2022/09/30 08:07:10;;;;;;;23.40;3.22;;;15.00;99.90;;;;;;5032277;28;20653;-71
2022/09/30 08:09:41;;;;;;;14.75;2.42;;;15.00;99.90;;;;;;5032330;28;20194;-72
2022/09/30 08:12:13;;;;;;;17.20;2.85;;;15.10;99.90;;;;;;5035136;28;20657;-73
2022/09/30 08:14:45;;;;;;;23.63;3.40;;;15.10;99.90;;;;;;5030849;28;20200;-72
2022/09/30 08:17:16;;;;;;;23.20;2.65;;;15.00;99.90;;;;;;5032022;28;20685;-72
2022/09/30 08:19:46;;;;;;;20.10;3.10;;;15.10;99.90;;;;;;5032242;28;20202;-74
2022/09/30 08:22:17;;;;;;;17.85;2.58;;;15.00;99.90;;;;;;5030849;28;20209;-72
2022/09/30 08:24:48;;;;;;;14.95;2.75;;;15.00;99.90;;;;;;5031894;28;20198;-72
2022/09/30 08:27:20;;;;;;;22.55;2.78;;;15.00;99.90;;;;;;5032008;28;20209;-73
2022/09/30 08:29:51;;;;;;;22.75;3.05;;;15.00;99.90;;;;;;5029506;28;20206;-73
2022/09/30 08:32:22;;;;;;;24.98;3.67;;;15.00;99.90;;;;;;5032072;28;20199;-73
2022/09/30 08:34:53;;;;;;;23.05;2.90;;;15.00;99.90;;;;;;5028377;28;20218;-74
2022/09/30 08:37:24;;;;;;;26.48;3.92;;;15.00;99.90;;;;;;5033235;28;20244;-74
2022/09/30 08:39:55;;;;;;;16.35;2.83;;;15.00;99.90;;;;;;5030216;28;20202;-75
2022/09/30 08:42:49;;;;;;;18.77;2.92;;;14.90;99.90;;;;;;5027591;28;20202;-72
2022/09/30 08:45:27;;;;;;;15.50;2.50;;;14.90;99.90;;;;;;5023595;28;20205;-73
2022/09/30 08:48:07;;;;;;;18.27;2.58;;;14.90;99.90;;;;;;5032944;28;20205;-74
2022/09/30 08:50:50;;;;;;;18.17;2.65;;;15.00;99.90;;;;;;5029363;28;20206;-74
2022/09/30 08:53:29;;;;;;;14.65;2.30;;;15.00;99.90;;;;;;5031722;28;20202;-74
2022/09/30 08:56:01;;;;;;;24.30;3.00;;;15.00;99.90;;;;;;5029387;28;20235;-75
2022/09/30 08:58:40;;;;;;;20.60;2.95;;;15.00;99.90;;;;;;5031777;28;20221;-73
2022/09/30 09:01:19;;;;;;;20.25;3.22;;;15.00;99.90;;;;;;5026742;28;20204;-75
2022/09/30 09:03:50;;;;;;;21.52;2.53;;;15.00;99.90;;;;;;5030459;28;20190;-75
2022/09/30 09:06:29;;;;;;;14.98;2.55;;;15.00;99.90;;;;;;5027333;28;20195;-75
2022/09/30 09:09:28;;;;;;;21.17;3.10;;;15.10;99.90;;;;;;5027969;28;20194;-74
2022/09/30 09:12:11;;;;;;;20.00;3.00;;;15.10;99.90;;;;;;5025845;28;20252;-75
2022/09/30 09:14:57;;;;;;;16.02;2.30;;;15.10;99.90;;;;;;5028463;28;20256;-74
2022/09/30 09:17:40;;;;;;;22.90;3.35;;;15.10;99.90;;;;;;5023151;28;20208;-75
2022/09/30 09:20:17;;;;;;;20.25;2.72;;;15.10;99.90;;;;;;5029053;28;20204;-76
2022/09/30 09:22:49;;;;;;;15.40;3.20;;;15.20;99.90;;;;;;5030772;28;20196;-74
2022/09/30 09:25:25;;;;;;;17.55;2.70;;;15.20;99.90;;;;;;5026828;28;20194;-75
2022/09/30 09:27:59;;;;;;;16.45;2.83;;;15.20;99.90;;;;;;5032455;28;20752;-75
2022/09/30 09:30:38;;;;;;;16.58;2.50;;;15.30;99.90;;;;;;5033049;28;20668;-76
2022/09/30 09:33:20;;;;;;;19.90;2.97;;;15.20;99.90;;;;;;5031242;28;20217;-76
2022/09/30 09:36:02;;;;;;;17.00;3.00;;;15.20;99.90;;;;;;5032982;28;20224;-75
2022/09/30 09:38:39;;;;;;;18.15;2.30;;;15.10;99.90;;;;;;5025595;28;20264;-76
2022/09/30 09:41:27;;;;;;;14.18;2.53;;;15.10;99.90;;;;;;5029279;28;20212;-74
2022/09/30 09:44:04;;;;;;;16.17;2.70;;;15.10;99.90;;;;;;5027770;28;20199;-76
2022/09/30 09:46:42;;;;;;;16.77;2.53;;;15.00;99.90;;;;;;5030568;28;20201;-77
2022/09/30 09:49:34;;;;;;;13.65;2.20;;;15.00;99.90;;;;;;5029259;28;20617;-76
2022/09/30 09:52:46;;;;;;;18.70;2.55;;;14.90;99.90;;;;;;5031334;28;20198;-73
2022/09/30 09:55:19;;;;;;;19.67;2.60;;;14.90;99.90;;;;;;5032087;28;20566;-75
2022/09/30 09:57:49;;;;;;;13.05;2.33;;;15.00;99.90;;;;;;5034791;28;20210;-74
2022/09/30 10:03:20;;;;;;;18.75;2.90;;;15.10;99.90;;;;;;5033283;28;20328;-76
2022/09/30 10:06:02;;;;;;;18.15;3.03;;;15.00;99.90;;;;;;5032108;28;20660;-76
2022/09/30 10:08:35;;;;;;;17.48;2.33;;;15.00;99.90;;;;;;5030879;28;20217;-76
2022/09/30 10:11:07;;;;;;;16.95;2.42;;;15.00;99.90;;;;;;5032861;28;20635;-77
2022/09/30 10:13:45;;;;;;;17.05;2.38;;;15.00;99.90;;;;;;5034854;28;20202;-70
2022/09/30 10:16:34;;;;;;;11.93;2.45;;;14.90;99.90;;;;;;5032371;28;20202;-70
2022/09/30 10:19:19;;;;;;;22.25;3.40;;;14.90;99.90;;;;;;5029301;28;20233;-75
2022/09/30 10:21:50;;;;;;;13.52;2.55;;;15.00;99.90;;;;;;5033956;28;20678;-74
2022/09/30 10:24:30;;;;;;;12.55;2.35;;;15.00;99.90;;;;;;5031123;28;20203;-76
2022/09/30 10:27:00;;;;;;;18.27;2.60;;;15.00;99.90;;;;;;5031508;28;20205;-74
2022/09/30 10:29:32;;;;;;;14.65;2.08;;;15.00;99.90;;;;;;5033287;28;20202;-75
2022/09/30 10:32:04;;;;;;;19.98;2.72;;;15.10;99.90;;;;;;5034243;28;20200;-75
2022/09/30 10:34:38;;;;;;;13.85;2.35;;;15.10;99.90;;;;;;5034772;28;20585;-74
2022/09/30 10:37:14;;;;;;;15.95;2.28;;;15.00;99.90;;;;;;5029768;28;20234;-75
2022/09/30 10:39:50;;;;;;;12.18;2.40;;;15.10;99.90;;;;;;5042299;28;20560;-72
2022/09/30 10:42:24;;;;;;;19.52;2.60;;;15.10;99.90;;;;;;5047275;28;20197;-74
2022/09/30 10:45:00;;;;;;;14.82;2.40;;;15.10;99.90;;;;;;5035548;28;20202;-72
2022/09/30 10:47:32;;;;;;;15.77;2.10;;;15.10;99.90;;;;;;5044754;28;20201;-72
2022/09/30 10:50:09;;;;;;;22.58;2.88;;;15.00;99.90;;;;;;5039563;28;20205;-72
2022/09/30 10:52:48;;;;;;;15.48;2.65;;;15.00;99.90;;;;;;5035885;28;20193;-74
2022/09/30 10:55:33;;;;;;;16.75;2.60;;;15.00;99.90;;;;;;5033417;28;20197;-74
2022/09/30 10:58:27;;;;;;;18.30;2.45;;;15.00;99.90;;;;;;5036387;28;20260;-75
2022/09/30 11:01:04;;;;;;;15.93;2.58;;;15.00;99.90;;;;;;5034600;28;20194;-76
2022/09/30 11:03:42;;;;;;;16.67;2.47;;;15.00;99.90;;;;;;5034612;28;20632;-74
2022/09/30 11:06:16;;;;;;;18.05;2.38;;;15.10;99.90;;;;;;5034246;28;20680;-74
2022/09/30 11:08:52;;;;;;;14.93;3.13;;;15.20;99.90;;;;;;5042251;28;20236;-75
2022/09/30 11:11:26;;;;;;;17.83;2.47;;;15.20;99.90;;;;;;5039226;28;20204;-73
2022/09/30 11:14:00;;;;;;;15.70;2.90;;;15.20;99.90;;;;;;5039944;28;20198;-74
2022/09/30 11:16:38;;;;;;;18.20;2.50;;;15.30;99.90;;;;;;5039208;28;20201;-74
2022/09/30 11:19:17;;;;;;;15.68;2.70;;;15.30;99.90;;;;;;5041318;28;20213;-75
2022/09/30 11:21:55;;;;;;;13.18;1.95;;;15.40;99.90;;;;;;5035479;28;20555;-73
2022/09/30 11:24:35;;;;;;;19.88;2.10;;;15.40;99.90;;;;;;5033434;28;20202;-74
2022/09/30 11:27:13;;;;;;;11.43;2.25;;;15.40;99.90;;;;;;5035452;28;20196;-75
2022/09/30 11:29:55;;;;;;;14.82;2.13;;;15.40;99.90;;;;;;5031603;28;20203;-76
2022/09/30 11:32:35;;;;;;;19.80;2.97;;;15.40;99.90;;;;;;5029581;28;20198;-76
2022/09/30 11:35:20;;;;;;;17.15;2.28;;;15.50;99.90;;;;;;5039375;28;20229;-76
2022/09/30 11:38:04;;;;;;;15.68;2.22;;;15.40;99.90;;;;;;5035570;28;20240;-77
2022/09/30 11:40:39;;;;;;;16.63;3.00;;;15.40;99.90;;;;;;5042417;28;20208;-76
2022/09/30 11:43:20;;;;;;;20.02;2.65;;;15.30;99.90;;;;;;5040254;28;20560;-75
2022/09/30 11:46:16;;;;;;;18.88;2.58;;;15.30;99.90;;;;;;5036582;28;20201;-72
2022/09/30 11:49:03;;;;;;;15.00;2.60;;;15.30;99.90;;;;;;5031036;28;20202;-76
2022/09/30 11:51:39;;;;;;;23.05;4.18;;;15.30;99.90;;;;;;5044827;28;20202;-75
2022/09/30 11:54:24;;;;;;;22.08;4.05;;;15.30;99.90;;;;;;5039890;28;20680;-77
2022/09/30 11:57:03;;;;;;;17.48;3.70;;;15.20;99.90;;;;;;5036889;28;20193;-76
2022/09/30 11:59:44;;;;;;;16.25;3.30;;;15.20;99.90;;;;;;5034424;28;20217;-76
2022/09/30 12:02:27;;;;;;;11.13;2.80;;;15.20;99.90;;;;;;5037015;28;20193;-77
2022/09/30 12:05:04;;;;;;;15.40;2.70;;;15.10;99.90;;;;;;5039308;28;20197;-78
2022/09/30 12:07:45;;;;;;;10.43;1.83;;;15.10;99.90;;;;;;5036992;28;20201;-74
2022/09/30 12:10:22;;;;;;;10.68;1.95;;;15.10;99.90;;;;;;5038877;28;20210;-78
2022/09/30 12:12:56;;;;;;;13.77;2.47;;;15.10;99.90;;;;;;5034052;28;20276;-77
2022/09/30 12:15:28;;;;;;;10.60;1.77;;;15.00;99.90;;;;;;5032262;28;20190;-76
2022/09/30 12:18:04;;;;;;;7.95;1.80;;;15.00;99.90;;;;;;5041294;28;20190;-77
2022/09/30 12:20:39;;;;;;;16.67;2.40;;;14.90;99.90;;;;;;5042731;28;20193;-76
2022/09/30 12:23:19;;;;;;;15.45;1.88;;;14.90;99.90;;;;;;5035716;28;20198;-76
2022/09/30 12:25:56;;;;;;;8.25;1.60;;;15.00;99.90;;;;;;5040689;28;20715;-75
2022/09/30 12:31:44;;;;;;;14.85;2.08;;;14.90;99.90;;;;;;5043091;28;20792;-76
2022/09/30 12:34:34;;;;;;;18.63;2.33;;;14.90;99.90;;;;;;5043331;28;20233;-70
2022/09/30 12:37:18;;;;;;;14.60;2.05;;;14.80;99.90;;;;;;5044083;28;20710;-72
2022/09/30 12:40:24;;;;;;;17.35;2.28;;;14.80;99.90;;;;;;5034568;28;20214;-72
2022/09/30 12:43:29;;;;;;;12.15;2.05;;;14.80;99.90;;;;;;5027756;28;20200;-72
2022/09/30 12:46:20;;;;;;;15.25;2.17;;;14.70;99.90;;;;;;5040153;28;20197;-71
2022/09/30 12:48:54;;;;;;;13.30;2.10;;;14.70;99.90;;;;;;5038451;28;20202;-73
2022/09/30 12:51:28;;;;;;;14.57;2.05;;;14.60;99.90;;;;;;5042180;28;20197;-70
2022/09/30 12:54:03;;;;;;;14.35;1.95;;;14.70;99.90;;;;;;5031864;28;20276;-73
2022/09/30 12:56:36;;;;;;;11.85;2.20;;;14.60;99.90;;;;;;5040916;28;20198;-70
2022/09/30 12:59:10;;;;;;;13.07;1.70;;;14.60;99.90;;;;;;5035735;28;20222;-70
2022/09/30 13:01:43;;;;;;;11.27;1.88;;;14.60;99.90;;;;;;5028669;28;20256;-70
2022/09/30 13:04:19;;;;;;;7.20;1.65;;;14.60;99.90;;;;;;5025976;28;20201;-71
2022/09/30 13:07:14;;;;;;;13.50;2.20;;;14.70;99.90;;;;;;5032505;28;20194;-75
2022/09/30 13:10:27;;;;;;;11.45;1.67;;;14.70;99.90;;;;;;5018240;28;20186;-73
2022/09/30 13:13:22;;;;;;;17.27;2.40;;;14.80;99.90;;;;;;5033223;28;20198;-72
2022/09/30 13:16:02;;;;;;;11.32;2.33;;;14.80;99.90;;;;;;5012904;28;20222;-73
2022/09/30 13:19:10;;;;;;;12.70;1.90;;;14.90;99.90;;;;;;5027044;28;20280;-72
2022/09/30 13:21:41;;;;;;;18.38;2.10;;;14.90;99.90;;;;;;5026040;28;20204;-71
2022/09/30 13:24:12;;;;;;;17.10;1.85;;;14.80;99.90;;;;;;5032470;28;20190;-72
2022/09/30 13:26:49;;;;;;;10.93;2.15;;;14.80;99.90;;;;;;5033145;28;20198;-73
2022/09/30 13:29:49;;;;;;;15.38;2.03;;;14.80;99.90;;;;;;5023060;28;20555;-71
2022/09/30 13:32:37;;;;;;;7.40;2.00;;;14.80;99.90;;;;;;5022842;28;20194;-74